createdAt,value
2022-10-17T00:00:37.369Z,99727.66
2022-10-17T00:01:39.654Z,99736.53
2022-10-17T00:02:41.926Z,99733.44
2022-10-17T00:03:44.245Z,99737.53
2022-10-17T00:04:46.419Z,99726.09
2022-10-17T00:05:48.793Z,99729.72
2022-10-17T00:06:51.013Z,99723.88
2022-10-17T00:07:53.250Z,99723.81
2022-10-17T00:08:55.500Z,99728.00
2022-10-17T00:09:57.692Z,99723.44
2022-10-17T00:11:03.819Z,99723.22
2022-10-17T00:12:05.991Z,99716.00
2022-10-17T00:13:09.830Z,99718.72
2022-10-17T00:14:12.055Z,99718.72
2022-10-17T00:15:19.767Z,99719.72
2022-10-17T00:16:30.100Z,99721.28
2022-10-17T00:17:32.346Z,99722.16
2022-10-17T00:18:34.778Z,99723.66
2022-10-17T00:19:36.955Z,99728.81
2022-10-17T00:20:39.134Z,99720.06
2022-10-17T00:21:41.397Z,99728.78
2022-10-17T00:22:43.726Z,99724.78
2022-10-17T00:23:46.848Z,99740.09
2022-10-17T00:24:49.007Z,99732.94
2022-10-17T00:26:01.807Z,99736.25
2022-10-17T00:27:03.956Z,99733.63
2022-10-17T00:28:09.550Z,99743.88
2022-10-17T00:29:11.771Z,99742.72
2022-10-17T00:30:15.521Z,99738.63
2022-10-17T00:31:19.353Z,99737.66
2022-10-17T00:32:21.849Z,99746.41
2022-10-17T00:33:24.137Z,99741.91
2022-10-17T00:34:28.979Z,99744.84
2022-10-17T00:35:32.728Z,99740.91
2022-10-17T00:36:34.931Z,99744.59
2022-10-17T00:37:37.881Z,99741.56
2022-10-17T00:38:42.192Z,99753.72
2022-10-17T00:39:44.364Z,99745.56
2022-10-17T00:40:46.757Z,99748.00
2022-10-17T00:41:51.238Z,99748.50
2022-10-17T00:42:53.407Z,99744.31
2022-10-17T00:44:04.797Z,99749.59
2022-10-17T00:45:20.980Z,99757.50
2022-10-17T00:46:27.404Z,99745.13
2022-10-17T00:47:30.928Z,99749.28
2022-10-17T00:48:33.087Z,99748.13
2022-10-17T00:49:36.772Z,99757.88
2022-10-17T00:50:41.452Z,99741.91
2022-10-17T00:51:49.023Z,99744.69
2022-10-17T00:52:57.384Z,99751.69
2022-10-17T00:54:01.105Z,99756.94
2022-10-17T00:55:12.190Z,99753.41
2022-10-17T00:56:15.279Z,99754.31
2022-10-17T00:57:19.263Z,99750.72
2022-10-17T00:58:21.575Z,99749.00
2022-10-17T00:59:24.871Z,99748.28
2022-10-17T01:00:27.196Z,99751.56
2022-10-17T01:01:29.455Z,99758.50
2022-10-17T01:02:33.477Z,99752.44
2022-10-17T01:03:35.671Z,99764.69
2022-10-17T01:04:40.422Z,99759.56
2022-10-17T01:05:43.045Z,99762.19
2022-10-17T01:06:45.454Z,99758.13
2022-10-17T01:07:51.016Z,99771.03
2022-10-17T01:08:53.379Z,99770.34
2022-10-17T01:09:55.967Z,99774.03
2022-10-17T01:11:21.450Z,99771.34
2022-10-17T01:13:11.483Z,99761.59
2022-10-17T01:14:22.896Z,99764.03
2022-10-17T01:15:56.615Z,99772.03
2022-10-17T01:17:18.919Z,99769.38
2022-10-17T01:18:49.878Z,99776.31
2022-10-17T01:20:10.172Z,99771.94
2022-10-17T01:21:18.089Z,99776.31
2022-10-17T01:22:31.071Z,99776.44
2022-10-17T01:24:06.704Z,99780.59
2022-10-17T01:25:29.142Z,99762.25
2022-10-17T01:26:50.122Z,99778.19
2022-10-17T01:28:19.757Z,99772.66
2022-10-17T01:29:33.085Z,99777.13
2022-10-17T01:31:04.005Z,99771.75
2022-10-17T01:32:39.866Z,99780.59
2022-10-17T01:33:48.416Z,99772.03
2022-10-17T01:35:11.589Z,99775.31
2022-10-17T01:36:31.677Z,99778.19
2022-10-17T01:37:38.304Z,99778.78
2022-10-17T01:38:50.374Z,99778.88
2022-10-17T01:40:14.479Z,99778.88
2022-10-17T01:41:44.075Z,99766.41
2022-10-17T01:42:56.873Z,99776.09
2022-10-17T01:44:05.431Z,99773.50
2022-10-17T01:45:21.359Z,99767.34
2022-10-17T01:46:36.233Z,99773.28
2022-10-17T01:47:39.828Z,99762.91
2022-10-17T01:48:45.960Z,99769.94
2022-10-17T01:49:51.434Z,99768.19
2022-10-17T01:51:01.379Z,99766.50
2022-10-17T01:52:11.514Z,99762.28
2022-10-17T01:53:24.065Z,99765.78
2022-10-17T01:54:39.486Z,99765.63
2022-10-17T01:55:46.061Z,99772.81
2022-10-17T01:56:52.311Z,99771.69
2022-10-17T01:58:36.032Z,99764.78
2022-10-17T01:59:47.090Z,99759.09
2022-10-17T02:00:54.005Z,99755.59
2022-10-17T02:01:58.537Z,99759.09
2022-10-17T02:03:05.058Z,99762.94
2022-10-17T02:04:09.918Z,99758.13
2022-10-17T02:05:12.298Z,99744.81
2022-10-17T02:06:15.530Z,99760.16
2022-10-17T02:07:17.978Z,99757.00
2022-10-17T02:08:28.184Z,99759.56
2022-10-17T02:09:31.412Z,99762.00
2022-10-17T02:10:38.760Z,99760.75
2022-10-17T02:11:50.655Z,99753.16
2022-10-17T02:13:23.798Z,99755.28
2022-10-17T02:14:40.026Z,99755.28
2022-10-17T02:16:06.517Z,99749.22
2022-10-17T02:17:19.640Z,99746.38
2022-10-17T02:18:51.669Z,99744.31
2022-10-17T02:20:10.203Z,99730.31
2022-10-17T02:21:33.725Z,99744.06
2022-10-17T02:22:48.215Z,99756.00
2022-10-17T02:23:53.216Z,99748.16
2022-10-17T02:24:55.313Z,99736.72
2022-10-17T02:26:15.621Z,99736.41
2022-10-17T02:27:47.766Z,99732.97
2022-10-17T02:28:52.970Z,99751.66
2022-10-17T02:30:20.345Z,99744.88
2022-10-17T02:31:29.867Z,99740.31
2022-10-17T02:32:38.861Z,99734.22
2022-10-17T02:33:45.287Z,99718.69
2022-10-17T02:34:50.854Z,99735.91
2022-10-17T02:35:57.021Z,99741.22
2022-10-17T02:37:02.270Z,99740.13
2022-10-17T02:38:07.877Z,99727.25
2022-10-17T02:39:12.212Z,99737.38
2022-10-17T02:40:17.107Z,99736.72
2022-10-17T02:41:20.128Z,99735.91
2022-10-17T02:42:24.651Z,99729.00
2022-10-17T02:43:28.000Z,99734.50
2022-10-17T02:44:32.301Z,99730.88
2022-10-17T02:45:37.147Z,99729.59
2022-10-17T02:46:42.514Z,99733.59
2022-10-17T02:47:55.556Z,99728.72
2022-10-17T02:49:13.782Z,99725.97
2022-10-17T02:50:16.179Z,99727.44
2022-10-17T02:51:47.061Z,99717.25
2022-10-17T02:52:59.123Z,99722.09
2022-10-17T02:54:25.842Z,99723.22
2022-10-17T02:55:36.175Z,99724.84
2022-10-17T02:56:46.622Z,99717.38
2022-10-17T02:57:53.990Z,99728.97
2022-10-17T02:58:58.711Z,99731.28
2022-10-17T03:00:03.823Z,99721.88
2022-10-17T03:01:06.951Z,99729.41
2022-10-17T03:02:09.259Z,99723.84
2022-10-17T03:03:26.118Z,99720.09
2022-10-17T03:04:28.359Z,99713.56
2022-10-17T03:05:30.529Z,99711.47
2022-10-17T03:06:32.791Z,99709.69
2022-10-17T03:07:35.031Z,99715.50
2022-10-17T03:09:40.400Z,99715.03
2022-10-17T03:10:42.715Z,99721.03
2022-10-17T03:11:44.888Z,99715.63
2022-10-17T03:12:47.140Z,99720.88
2022-10-17T03:13:49.418Z,99717.84
2022-10-17T03:14:52.376Z,99721.06
2022-10-17T03:15:57.085Z,99721.50
2022-10-17T03:16:59.254Z,99725.94
2022-10-17T03:18:02.047Z,99729.34
2022-10-17T03:19:04.425Z,99725.81
2022-10-17T03:20:07.890Z,99724.00
2022-10-17T03:21:10.294Z,99728.59
2022-10-17T03:22:12.478Z,99727.63
2022-10-17T03:23:16.972Z,99724.59
2022-10-17T03:24:19.168Z,99728.38
2022-10-17T03:25:21.454Z,99727.97
2022-10-17T03:26:25.052Z,99719.81
2022-10-17T03:27:27.792Z,99725.53
2022-10-17T03:28:30.294Z,99719.44
2022-10-17T03:29:32.507Z,99720.16
2022-10-17T03:30:34.772Z,99732.31
2022-10-17T03:31:37.677Z,99717.22
2022-10-17T03:32:41.628Z,99717.94
2022-10-17T03:33:43.999Z,99709.94
2022-10-17T03:34:46.201Z,99718.53
2022-10-17T03:35:51.102Z,99724.22
2022-10-17T03:36:53.627Z,99721.50
2022-10-17T03:37:56.410Z,99727.63
2022-10-17T03:38:59.856Z,99734.47
2022-10-17T03:40:03.607Z,99734.22
2022-10-17T03:41:07.313Z,99723.84
2022-10-17T03:42:11.311Z,99739.50
2022-10-17T03:43:14.177Z,99729.63
2022-10-17T03:44:17.046Z,99733.31
2022-10-17T03:45:19.214Z,99744.44
2022-10-17T03:46:22.602Z,99734.53
2022-10-17T03:47:24.772Z,99742.84
2022-10-17T03:48:28.203Z,99742.69
2022-10-17T03:49:30.382Z,99745.97
2022-10-17T03:50:32.549Z,99745.75
2022-10-17T03:51:35.843Z,99746.16
2022-10-17T03:52:47.209Z,99745.00
2022-10-17T03:53:49.387Z,99747.44
2022-10-17T03:54:51.860Z,99741.06
2022-10-17T03:55:54.285Z,99744.25
2022-10-17T03:57:59.842Z,99740.03
2022-10-17T03:59:02.032Z,99755.38
2022-10-17T04:00:06.547Z,99750.22
2022-10-17T04:01:18.321Z,99759.81
2022-10-17T04:02:21.833Z,99762.72
2022-10-17T04:03:24.993Z,99770.78
2022-10-17T04:04:27.264Z,99767.19
2022-10-17T04:05:29.487Z,99764.66
2022-10-17T04:06:32.498Z,99762.91
2022-10-17T04:07:37.181Z,99771.50
2022-10-17T04:08:40.645Z,99766.25
2022-10-17T04:09:47.826Z,99764.53
2022-10-17T04:11:02.183Z,99767.13
2022-10-17T04:12:04.434Z,99768.09
2022-10-17T04:13:08.215Z,99774.91
2022-10-17T04:14:10.576Z,99773.09
2022-10-17T04:15:14.859Z,99780.94
2022-10-17T04:16:17.237Z,99782.63
2022-10-17T04:17:37.337Z,99777.41
2022-10-17T04:18:42.281Z,99781.25
2022-10-17T04:19:44.608Z,99777.16
2022-10-17T04:20:49.402Z,99777.09
2022-10-17T04:21:51.914Z,99782.31
2022-10-17T04:22:55.131Z,99779.56
2022-10-17T04:23:59.194Z,99782.25
2022-10-17T04:25:21.959Z,99778.75
2022-10-17T04:26:26.582Z,99774.34
2022-10-17T04:27:28.874Z,99771.66
2022-10-17T04:28:32.892Z,99779.56
2022-10-17T04:29:35.459Z,99777.66
2022-10-17T04:31:07.798Z,99788.00
2022-10-17T04:32:19.816Z,99783.63
2022-10-17T04:33:54.235Z,99780.06
2022-10-17T04:34:56.531Z,99791.28
2022-10-17T04:36:01.397Z,99794.97
2022-10-17T04:37:03.581Z,99786.09
2022-10-17T04:38:05.764Z,99788.72
2022-10-17T04:39:08.041Z,99787.13
2022-10-17T04:40:11.694Z,99794.84
2022-10-17T04:41:17.158Z,99792.28
2022-10-17T04:42:19.410Z,99786.75
2022-10-17T04:43:22.795Z,99787.78
2022-10-17T04:44:25.036Z,99787.94
2022-10-17T04:45:28.123Z,99791.25
2022-10-17T04:46:34.817Z,99793.06
2022-10-17T04:47:37.126Z,99790.44
2022-10-17T04:48:40.163Z,99799.25
2022-10-17T04:49:42.457Z,99793.00
2022-10-17T04:50:59.955Z,99803.59
2022-10-17T04:52:11.646Z,99796.72
2022-10-17T04:53:19.098Z,99807.25
2022-10-17T04:54:21.692Z,99805.50
2022-10-17T04:55:29.604Z,99800.19
2022-10-17T04:56:32.306Z,99801.81
2022-10-17T04:57:35.671Z,99801.72
2022-10-17T04:58:46.510Z,99798.75
2022-10-17T04:59:49.356Z,99804.03
2022-10-17T05:01:06.289Z,99806.59
2022-10-17T05:02:08.508Z,99802.38
2022-10-17T05:03:12.692Z,99799.47
2022-10-17T05:04:14.922Z,99799.16
2022-10-17T05:05:17.189Z,99800.66
2022-10-17T05:06:23.931Z,99802.25
2022-10-17T05:07:44.623Z,99796.19
2022-10-17T05:08:51.665Z,99802.06
2022-10-17T05:09:55.816Z,99800.22
2022-10-17T05:12:04.303Z,99802.06
2022-10-17T05:13:10.838Z,99799.56
2022-10-17T05:14:13.020Z,99795.91
2022-10-17T05:15:15.434Z,99801.81
2022-10-17T05:16:17.762Z,99802.88
2022-10-17T05:17:19.990Z,99798.81
2022-10-17T05:18:22.203Z,99795.66
2022-10-17T05:19:24.430Z,99796.56
2022-10-17T05:20:27.382Z,99807.16
2022-10-17T05:21:30.359Z,99797.59
2022-10-17T05:22:32.826Z,99805.31
2022-10-17T05:23:35.621Z,99816.56
2022-10-17T05:24:37.869Z,99810.22
2022-10-17T05:25:40.072Z,99801.94
2022-10-17T05:26:42.274Z,99808.25
2022-10-17T05:27:44.592Z,99809.94
2022-10-17T05:28:46.951Z,99804.44
2022-10-17T05:29:49.921Z,99811.19
2022-10-17T05:31:03.137Z,99809.19
2022-10-17T05:32:05.997Z,99809.19
2022-10-17T05:33:09.671Z,99801.03
2022-10-17T05:34:13.935Z,99810.41
2022-10-17T05:35:17.235Z,99813.63
2022-10-17T05:36:19.485Z,99805.59
2022-10-17T05:37:22.251Z,99807.31
2022-10-17T05:38:27.954Z,99827.44
2022-10-17T05:39:30.675Z,99818.88
2022-10-17T05:40:34.168Z,99829.44
2022-10-17T05:41:36.451Z,99822.22
2022-10-17T05:43:46.718Z,99817.41
2022-10-17T05:44:53.489Z,99811.53
2022-10-17T05:45:55.999Z,99820.25
2022-10-17T05:46:58.279Z,99815.72
2022-10-17T05:48:00.478Z,99819.25
2022-10-17T05:49:14.715Z,99805.19
2022-10-17T05:50:26.033Z,99807.44
2022-10-17T05:51:54.428Z,99812.53
2022-10-17T05:52:56.637Z,99812.19
2022-10-17T05:53:58.831Z,99811.97
2022-10-17T05:55:04.818Z,99813.38
2022-10-17T05:56:09.516Z,99828.94
2022-10-17T05:57:12.543Z,99828.06
2022-10-17T05:58:22.192Z,99817.53
2022-10-17T05:59:29.317Z,99827.19
2022-10-17T06:00:42.508Z,99817.34
2022-10-17T06:01:45.051Z,99822.25
2022-10-17T06:02:47.769Z,99822.13
2022-10-17T06:03:51.741Z,99833.28
2022-10-17T06:04:54.736Z,99820.56
2022-10-17T06:06:11.115Z,99820.22
2022-10-17T06:07:16.922Z,99828.63
2022-10-17T06:08:20.225Z,99821.19
2022-10-17T06:09:23.636Z,99837.13
2022-10-17T06:10:28.368Z,99832.41
2022-10-17T06:11:31.537Z,99821.66
2022-10-17T06:12:34.805Z,99837.19
2022-10-17T06:13:38.413Z,99833.84
2022-10-17T06:14:46.326Z,99838.84
2022-10-17T06:15:49.608Z,99842.28
2022-10-17T06:16:51.934Z,99844.66
2022-10-17T06:17:54.132Z,99843.72
2022-10-17T06:18:56.362Z,99848.91
2022-10-17T06:20:00.365Z,99842.53
2022-10-17T06:21:08.650Z,99846.91
2022-10-17T06:22:13.288Z,99847.63
2022-10-17T06:23:16.487Z,99853.75
2022-10-17T06:24:42.270Z,99851.16
2022-10-17T06:25:44.624Z,99856.56
2022-10-17T06:26:49.764Z,99854.69
2022-10-17T06:28:57.028Z,99856.31
2022-10-17T06:30:01.371Z,99853.25
2022-10-17T06:31:10.112Z,99851.97
2022-10-17T06:32:14.920Z,99852.22
2022-10-17T06:33:20.722Z,99847.31
2022-10-17T06:34:23.315Z,99856.44
2022-10-17T06:35:25.536Z,99863.63
2022-10-17T06:36:27.703Z,99858.84
2022-10-17T06:37:36.580Z,99867.16
2022-10-17T06:38:42.405Z,99869.22
2022-10-17T06:39:53.060Z,99870.31
2022-10-17T06:41:14.193Z,99871.63
2022-10-17T06:42:16.905Z,99866.88
2022-10-17T06:43:51.569Z,99880.22
2022-10-17T06:45:13.431Z,99881.53
2022-10-17T06:46:29.723Z,99879.34
2022-10-17T06:47:37.829Z,99878.84
2022-10-17T06:48:53.759Z,99877.66
2022-10-17T06:50:14.627Z,99883.44
2022-10-17T06:51:26.128Z,99882.78
2022-10-17T06:52:30.992Z,99890.22
2022-10-17T06:53:53.513Z,99899.13
2022-10-17T06:55:04.610Z,99904.91
2022-10-17T06:56:15.578Z,99910.94
2022-10-17T06:57:44.117Z,99915.91
2022-10-17T06:59:10.502Z,99919.22
2022-10-17T07:00:15.156Z,99929.28
2022-10-17T07:01:22.416Z,99930.09
2022-10-17T07:02:27.776Z,99930.22
2022-10-17T07:03:32.885Z,99932.50
2022-10-17T07:04:36.100Z,99937.31
2022-10-17T07:05:38.326Z,99931.97
2022-10-17T07:06:40.873Z,99939.47
2022-10-17T07:07:55.881Z,99935.44
2022-10-17T07:08:58.309Z,99944.50
2022-10-17T07:10:00.639Z,99933.69
2022-10-17T07:11:14.860Z,99935.69
2022-10-17T07:12:17.520Z,99937.75
2022-10-17T07:13:21.238Z,99940.25
2022-10-17T07:14:23.492Z,99943.09
2022-10-17T07:15:26.210Z,99939.19
2022-10-17T07:16:29.107Z,99943.09
2022-10-17T07:17:52.798Z,99947.59
2022-10-17T07:18:55.633Z,99947.34
2022-10-17T07:19:58.121Z,99948.09
2022-10-17T07:21:01.110Z,99947.22
2022-10-17T07:22:03.610Z,99944.88
2022-10-17T07:23:07.482Z,99948.97
2022-10-17T07:24:09.905Z,99957.75
2022-10-17T07:25:13.146Z,99942.72
2022-10-17T07:26:23.648Z,99948.75
2022-10-17T07:27:25.964Z,99943.31
2022-10-17T07:28:28.920Z,99951.88
2022-10-17T07:29:34.861Z,99946.38
2022-10-17T07:31:03.541Z,99948.97
2022-10-17T07:32:08.491Z,99955.72
2022-10-17T07:33:10.845Z,99956.34
2022-10-17T07:34:13.020Z,99946.22
2022-10-17T07:35:16.008Z,99953.50
2022-10-17T07:36:19.169Z,99957.13
2022-10-17T07:37:21.950Z,99955.88
2022-10-17T07:38:30.019Z,99949.63
2022-10-17T07:39:32.378Z,99954.91
2022-10-17T07:40:34.692Z,99955.28
2022-10-17T07:41:37.622Z,99955.59
2022-10-17T07:43:48.530Z,99956.81
2022-10-17T07:44:54.995Z,99959.75
2022-10-17T07:45:58.261Z,99958.09
2022-10-17T07:47:00.609Z,99963.25
2022-10-17T07:48:02.895Z,99958.00
2022-10-17T07:49:06.287Z,99971.91
2022-10-17T07:50:09.513Z,99974.31
2022-10-17T07:51:11.711Z,99969.75
2022-10-17T07:52:15.598Z,99971.47
2022-10-17T07:53:17.948Z,99985.59
2022-10-17T07:54:20.138Z,99976.16
2022-10-17T07:55:22.328Z,99987.50
2022-10-17T07:56:24.775Z,99991.31
2022-10-17T07:57:26.981Z,99997.50
2022-10-17T07:58:31.166Z,99993.22
2022-10-17T07:59:34.455Z,99992.28
2022-10-17T08:00:37.283Z,99991.44
2022-10-17T08:01:39.590Z,99991.56
2022-10-17T08:02:41.814Z,99992.75
2022-10-17T08:03:45.069Z,99993.63
2022-10-17T08:04:47.244Z,99995.38
2022-10-17T08:05:49.488Z,99992.19
2022-10-17T08:06:56.447Z,99998.25
2022-10-17T08:08:02.742Z,99999.84
2022-10-17T08:09:04.947Z,100006.16
2022-10-17T08:11:13.487Z,99995.03
2022-10-17T08:12:15.735Z,100004.78
2022-10-17T08:13:17.912Z,100005.25
2022-10-17T08:14:20.039Z,100004.69
2022-10-17T08:15:24.854Z,100008.91
2022-10-17T08:16:27.960Z,100004.47
2022-10-17T08:17:30.171Z,100010.03
2022-10-17T08:18:32.904Z,100003.56
2022-10-17T08:19:38.429Z,100009.63
2022-10-17T08:20:41.827Z,100013.97
2022-10-17T08:21:45.009Z,100006.28
2022-10-17T08:22:54.425Z,100007.88
2022-10-17T08:23:56.883Z,100001.84
2022-10-17T08:24:59.304Z,100009.94
2022-10-17T08:26:03.644Z,100007.50
2022-10-17T08:27:11.272Z,100003.31
2022-10-17T08:28:13.697Z,100007.47
2022-10-17T08:29:16.791Z,100009.50
2022-10-17T08:30:18.939Z,100009.38
2022-10-17T08:31:21.440Z,100012.00
2022-10-17T08:32:26.335Z,100012.66
2022-10-17T08:33:28.513Z,100012.56
2022-10-17T08:34:30.729Z,100001.63
2022-10-17T08:35:33.089Z,100018.97
2022-10-17T08:36:35.248Z,100009.97
2022-10-17T08:37:37.484Z,100009.13
2022-10-17T08:38:43.066Z,100012.97
2022-10-17T08:39:45.799Z,100011.16
2022-10-17T08:40:49.462Z,100016.53
2022-10-17T08:42:21.681Z,100020.91
2022-10-17T08:43:35.334Z,100026.47
2022-10-17T08:44:51.599Z,100029.31
2022-10-17T08:46:04.960Z,100028.38
2022-10-17T08:47:14.867Z,100021.78
2022-10-17T08:48:20.558Z,100021.53
2022-10-17T08:49:31.993Z,100027.22
2022-10-17T08:50:40.368Z,100021.03
2022-10-17T08:51:58.626Z,100019.31
2022-10-17T08:53:22.368Z,100011.53
2022-10-17T08:54:41.320Z,100013.00
2022-10-17T08:55:48.789Z,100019.19
2022-10-17T08:56:54.347Z,100018.31
2022-10-17T08:57:56.564Z,100024.44
2022-10-17T08:58:58.740Z,100021.19
2022-10-17T09:00:00.910Z,100026.13
2022-10-17T09:01:12.731Z,100028.13
2022-10-17T09:02:24.300Z,100031.34
2022-10-17T09:03:38.569Z,100030.72
2022-10-17T09:04:57.297Z,100033.03
2022-10-17T09:06:18.092Z,100031.75
2022-10-17T09:07:44.004Z,100023.34
2022-10-17T09:09:01.674Z,100030.25
2022-10-17T09:10:26.287Z,100033.13
2022-10-17T09:11:54.424Z,100034.22
2022-10-17T09:13:34.029Z,100032.31
2022-10-17T09:14:54.213Z,100029.94
2022-10-17T09:16:14.857Z,100025.88
2022-10-17T09:17:44.627Z,100027.41
2022-10-17T09:18:58.964Z,100032.19
2022-10-17T09:20:10.924Z,100023.69
2022-10-17T09:21:25.062Z,100024.19
2022-10-17T09:22:37.470Z,100024.78
2022-10-17T09:23:53.312Z,100025.97
2022-10-17T09:25:06.855Z,100027.28
2022-10-17T09:26:11.436Z,100028.44
2022-10-17T09:27:38.460Z,100025.41
2022-10-17T09:28:42.753Z,100026.88
2022-10-17T09:29:48.686Z,100025.56
2022-10-17T09:30:59.509Z,100024.03
2022-10-17T09:32:05.227Z,100035.63
2022-10-17T09:33:28.173Z,100029.25
2022-10-17T09:34:36.672Z,100040.75
2022-10-17T09:35:41.862Z,100038.25
2022-10-17T09:36:44.122Z,100030.47
2022-10-17T09:37:47.113Z,100039.69
2022-10-17T09:39:12.848Z,100030.75
2022-10-17T09:40:22.615Z,100041.84
2022-10-17T09:41:45.438Z,100042.81
2022-10-17T09:42:51.202Z,100046.56
2022-10-17T09:43:57.231Z,100043.81
2022-10-17T09:45:19.344Z,100055.47
2022-10-17T09:46:30.190Z,100055.91
2022-10-17T09:47:42.475Z,100049.75
2022-10-17T09:49:16.441Z,100058.69
2022-10-17T09:50:28.947Z,100060.41
2022-10-17T09:51:32.337Z,100053.47
2022-10-17T09:52:40.315Z,100055.09
2022-10-17T09:53:49.329Z,100051.31
2022-10-17T09:54:55.548Z,100048.66
2022-10-17T09:56:01.180Z,100052.88
2022-10-17T09:57:06.835Z,100049.38
2022-10-17T09:58:10.393Z,100056.75
2022-10-17T09:59:13.914Z,100046.44
2022-10-17T10:00:23.291Z,100047.66
2022-10-17T10:01:28.137Z,100039.16
2022-10-17T10:02:33.558Z,100049.63
2022-10-17T10:03:35.927Z,100052.53
2022-10-17T10:05:06.289Z,100049.97
2022-10-17T10:06:19.033Z,100051.78
2022-10-17T10:07:25.628Z,100045.84
2022-10-17T10:08:54.915Z,100052.97
2022-10-17T10:09:58.806Z,100051.81
2022-10-17T10:11:04.859Z,100052.19
2022-10-17T10:12:18.534Z,100061.53
2022-10-17T10:13:20.724Z,100061.38
2022-10-17T10:14:28.490Z,100066.84
2022-10-17T10:15:34.699Z,100066.53
2022-10-17T10:16:48.174Z,100065.69
2022-10-17T10:17:50.377Z,100067.38
2022-10-17T10:18:52.784Z,100068.06
2022-10-17T10:19:55.288Z,100071.28
2022-10-17T10:21:21.004Z,100077.91
2022-10-17T10:22:23.804Z,100078.75
2022-10-17T10:23:25.979Z,100081.84
2022-10-17T10:24:31.042Z,100081.63
2022-10-17T10:25:34.960Z,100072.50
2022-10-17T10:26:44.857Z,100076.16
2022-10-17T10:27:47.482Z,100080.06
2022-10-17T10:28:56.606Z,100082.06
2022-10-17T10:29:59.111Z,100070.91
2022-10-17T10:31:05.199Z,100076.06
2022-10-17T10:32:16.317Z,100070.78
2022-10-17T10:33:25.614Z,100076.41
2022-10-17T10:35:36.706Z,100068.72
2022-10-17T10:36:52.243Z,100080.72
2022-10-17T10:37:57.765Z,100072.44
2022-10-17T10:39:02.451Z,100071.34
2022-10-17T10:40:18.448Z,100069.22
2022-10-17T10:41:21.571Z,100065.41
2022-10-17T10:42:39.319Z,100061.28
2022-10-17T10:43:45.215Z,100060.81
2022-10-17T10:44:48.906Z,100062.47
2022-10-17T10:45:52.511Z,100058.00
2022-10-17T10:47:28.762Z,100063.78
2022-10-17T10:48:36.931Z,100061.25
2022-10-17T10:49:39.521Z,100062.75
2022-10-17T10:50:48.159Z,100062.50
2022-10-17T10:51:50.583Z,100069.03
2022-10-17T10:53:04.665Z,100064.66
2022-10-17T10:54:32.436Z,100067.75
2022-10-17T10:55:40.759Z,100072.13
2022-10-17T10:57:12.976Z,100070.66
2022-10-17T10:58:48.967Z,100076.03
2022-10-17T11:00:13.020Z,100076.91
2022-10-17T11:01:37.002Z,100073.53
2022-10-17T11:02:54.775Z,100069.88
2022-10-17T11:04:10.103Z,100073.28
2022-10-17T11:05:34.816Z,100069.66
2022-10-17T11:06:41.834Z,100071.38
2022-10-17T11:07:52.301Z,100068.44
2022-10-17T11:09:33.783Z,100069.47
2022-10-17T11:11:23.688Z,100063.56
2022-10-17T11:12:36.693Z,100064.56
2022-10-17T11:14:03.543Z,100075.97
2022-10-17T11:15:44.021Z,100074.75
2022-10-17T11:16:50.033Z,100065.50
2022-10-17T11:17:56.777Z,100068.16
2022-10-17T11:19:09.631Z,100070.34
2022-10-17T11:20:41.677Z,100064.44
2022-10-17T11:21:48.429Z,100066.41
2022-10-17T11:23:05.573Z,100064.25
2022-10-17T11:24:13.975Z,100074.22
2022-10-17T11:25:34.431Z,100068.63
2022-10-17T11:26:52.281Z,100065.09
2022-10-17T11:27:54.570Z,100068.94
2022-10-17T11:28:58.710Z,100066.72
2022-10-17T11:30:01.724Z,100071.41
2022-10-17T11:31:08.554Z,100065.91
2022-10-17T11:32:25.359Z,100073.34
2022-10-17T11:33:35.396Z,100075.63
2022-10-17T11:34:50.888Z,100075.31
2022-10-17T11:35:58.859Z,100080.44
2022-10-17T11:37:09.617Z,100081.72
2022-10-17T11:38:30.118Z,100080.88
2022-10-17T11:40:51.768Z,100087.41
2022-10-17T11:42:06.601Z,100090.09
2022-10-17T11:43:12.703Z,100081.03
2022-10-17T11:44:36.712Z,100078.16
2022-10-17T11:45:50.027Z,100087.16
2022-10-17T11:47:02.284Z,100081.97
2022-10-17T11:48:11.147Z,100080.41
2022-10-17T11:49:20.594Z,100084.66
2022-10-17T11:52:05.454Z,100086.16
2022-10-17T11:53:13.845Z,100084.38
2022-10-17T11:54:35.671Z,100083.28
2022-10-17T11:55:39.258Z,100088.09
2022-10-17T11:57:02.697Z,100086.41
2022-10-17T11:58:19.228Z,100079.31
2022-10-17T11:59:33.250Z,100084.34
2022-10-17T12:00:42.168Z,100089.28
2022-10-17T12:01:52.693Z,100084.94
2022-10-17T12:03:16.781Z,100075.44
2022-10-17T12:04:33.938Z,100088.72
2022-10-17T12:05:56.957Z,100081.19
2022-10-17T12:07:30.161Z,100087.38
2022-10-17T12:08:41.317Z,100085.97
2022-10-17T12:10:07.307Z,100084.53
2022-10-17T12:11:29.393Z,100074.69
2022-10-17T12:12:35.707Z,100088.00
2022-10-17T12:13:37.815Z,100085.59
2022-10-17T12:14:48.713Z,100081.47
2022-10-17T12:15:50.883Z,100076.16
2022-10-17T12:16:53.867Z,100076.66
2022-10-17T12:17:58.241Z,100079.09
2022-10-17T12:19:00.290Z,100077.19
2022-10-17T12:20:27.377Z,100078.06
2022-10-17T12:22:02.245Z,100078.13
2022-10-17T12:23:13.239Z,100076.59
2022-10-17T12:24:32.919Z,100089.22
2022-10-17T12:26:46.589Z,100084.25
2022-10-17T12:27:50.509Z,100094.72
2022-10-17T12:28:53.303Z,100084.38
2022-10-17T12:30:01.227Z,100077.84
2022-10-17T12:31:12.989Z,100091.06
2022-10-17T12:32:15.751Z,100093.88
2022-10-17T12:33:26.684Z,100083.84
2022-10-17T12:34:29.012Z,100089.94
2022-10-17T12:35:34.110Z,100094.47
2022-10-17T12:36:37.784Z,100092.72
2022-10-17T12:37:42.759Z,100097.38
2022-10-17T12:38:49.940Z,100093.44
2022-10-17T12:39:52.485Z,100089.28
2022-10-17T12:41:00.247Z,100087.09
2022-10-17T12:42:02.452Z,100088.44
2022-10-17T12:43:13.509Z,100091.97
2022-10-17T12:44:21.280Z,100090.41
2022-10-17T12:45:49.752Z,100084.53
2022-10-17T12:47:09.755Z,100089.31
2022-10-17T12:48:12.415Z,100090.31
2022-10-17T12:49:39.451Z,100095.59
2022-10-17T12:52:29.670Z,100083.63
2022-10-17T12:53:57.259Z,100085.91
2022-10-17T12:55:13.164Z,100080.72
2022-10-17T12:56:22.039Z,100085.44
2022-10-17T12:57:34.646Z,100090.81
2022-10-17T12:58:37.064Z,100091.88
2022-10-17T12:59:44.018Z,100093.00
2022-10-17T13:01:18.956Z,100081.69
2022-10-17T13:02:21.677Z,100084.97
2022-10-17T13:03:31.884Z,100080.72
2022-10-17T13:04:36.494Z,100079.53
2022-10-17T13:05:41.654Z,100081.06
2022-10-17T13:06:47.951Z,100089.78
2022-10-17T13:07:52.013Z,100088.03
2022-10-17T13:09:04.040Z,100087.13
2022-10-17T13:10:20.216Z,100088.66
2022-10-17T13:11:28.878Z,100088.41
2022-10-17T13:12:40.257Z,100084.59
2022-10-17T13:13:45.253Z,100095.44
2022-10-17T13:14:50.099Z,100091.06
2022-10-17T13:15:54.319Z,100099.09
2022-10-17T13:16:58.294Z,100093.56
2022-10-17T13:18:01.339Z,100097.94
2022-10-17T13:19:16.821Z,100087.84
2022-10-17T13:20:25.538Z,100092.16
2022-10-17T13:21:31.563Z,100084.91
2022-10-17T13:22:33.880Z,100092.25
2022-10-17T13:23:37.807Z,100087.09
2022-10-17T13:24:41.024Z,100087.38
2022-10-17T13:25:43.332Z,100083.06
2022-10-17T13:26:45.980Z,100083.72
2022-10-17T13:27:49.656Z,100080.97
2022-10-17T13:29:11.934Z,100085.09
2022-10-17T13:30:34.936Z,100088.16
2022-10-17T13:31:40.721Z,100092.78